Time;durP1;ratioP1;P1;durP2;ratioP2;P2;SDS_P1;SDS_P2;PMS_P1;PMS_P2;Temp;Humidity;BMP_temperature;BMP_pressure;BME280_temperature;BME280_humidity;BME280_pressure;Samples;Min_cycle;Max_cycle;Signal;HPM_P1;HPM_P2
2023/12/19 00:00:33;;;;;;;41.53;18.92;;;7.30;99.90;;;;;;6146598;23;20028;-33
2023/12/19 00:02:59;;;;;;;51.42;22.15;;;7.30;99.90;;;;;;6173167;23;20036;-33
2023/12/19 00:05:24;;;;;;;45.17;20.55;;;7.30;99.90;;;;;;6171224;23;20357;-35
2023/12/19 00:07:50;;;;;;;35.95;17.60;;;7.30;99.90;;;;;;6145187;23;20128;-34
2023/12/19 00:10:16;;;;;;;43.95;20.08;;;7.30;99.90;;;;;;6169282;23;20360;-35
2023/12/19 00:12:42;;;;;;;37.38;19.65;;;7.30;99.90;;;;;;6174237;23;20078;-35
2023/12/19 00:15:08;;;;;;;36.90;17.33;;;7.30;99.90;;;;;;6172209;23;20400;-35
2023/12/19 00:17:34;;;;;;;38.80;18.58;;;7.20;99.90;;;;;;6169219;23;20528;-35
2023/12/19 00:20:00;;;;;;;44.95;18.77;;;7.20;99.90;;;;;;6171191;23;20047;-44
2023/12/19 00:22:25;;;;;;;33.08;16.90;;;7.20;99.90;;;;;;6176300;23;20025;-34
2023/12/19 00:24:51;;;;;;;38.13;18.13;;;7.20;99.90;;;;;;6176024;23;20483;-36
2023/12/19 00:27:17;;;;;;;30.90;15.45;;;7.20;99.90;;;;;;6174862;23;20532;-34
2023/12/19 00:29:43;;;;;;;29.85;14.82;;;7.20;99.90;;;;;;6174259;23;20107;-34
2023/12/19 00:32:09;;;;;;;34.53;17.85;;;7.20;99.90;;;;;;6150783;23;20021;-34
2023/12/19 00:34:34;;;;;;;34.30;17.60;;;7.20;99.90;;;;;;6175772;23;20020;-34
2023/12/19 00:37:00;;;;;;;36.13;17.55;;;7.20;99.90;;;;;;6177643;23;20024;-34
2023/12/19 00:39:27;;;;;;;34.75;18.65;;;7.20;99.90;;;;;;6176669;23;20021;-35
2023/12/19 00:41:53;;;;;;;38.60;19.65;;;7.20;99.90;;;;;;6176955;23;20454;-34
2023/12/19 00:44:19;;;;;;;34.63;17.17;;;7.20;99.90;;;;;;6176663;23;20020;-34
2023/12/19 00:46:45;;;;;;;31.70;14.93;;;7.20;99.90;;;;;;6175200;23;20021;-34
2023/12/19 00:49:11;;;;;;;36.08;18.65;;;7.30;99.90;;;;;;6168310;23;20024;-34
2023/12/19 00:51:37;;;;;;;36.53;17.13;;;7.20;99.90;;;;;;6171268;23;20036;-34
2023/12/19 00:54:03;;;;;;;39.22;18.63;;;7.30;99.90;;;;;;6173231;23;20092;-35
2023/12/19 00:56:29;;;;;;;36.00;18.27;;;7.20;99.90;;;;;;6173176;23;20471;-35
2023/12/19 00:58:55;;;;;;;43.30;20.15;;;7.30;99.90;;;;;;6146276;23;20056;-34
2023/12/19 01:01:24;;;;;;;36.95;15.48;;;7.30;99.90;;;;;;6175905;23;20017;-35
2023/12/19 01:03:51;;;;;;;30.95;15.15;;;7.30;99.90;;;;;;6149224;23;20024;-35
2023/12/19 01:06:16;;;;;;;37.75;18.70;;;7.30;99.90;;;;;;6171184;23;20024;-34
2023/12/19 01:08:42;;;;;;;36.70;17.98;;;7.30;99.90;;;;;;6176367;23;20471;-34
2023/12/19 01:11:09;;;;;;;33.95;16.58;;;7.30;99.90;;;;;;6177035;23;20519;-34
2023/12/19 01:13:38;;;;;;;36.08;18.25;;;7.30;99.90;;;;;;6177227;23;20029;-34
2023/12/19 01:16:05;;;;;;;33.08;16.75;;;7.30;99.90;;;;;;6176000;23;20101;-34
2023/12/19 01:18:32;;;;;;;32.40;16.45;;;7.30;99.90;;;;;;6150769;23;20071;-34
2023/12/19 01:20:57;;;;;;;39.75;18.08;;;7.30;99.90;;;;;;6177078;23;20039;-34
2023/12/19 01:23:25;;;;;;;32.75;16.38;;;7.30;99.90;;;;;;6175362;23;20132;-34
2023/12/19 01:25:51;;;;;;;32.55;17.23;;;7.30;99.90;;;;;;6178868;23;20483;-34
2023/12/19 01:28:16;;;;;;;33.15;17.23;;;7.30;99.90;;;;;;6180569;23;20017;-35
2023/12/19 01:30:42;;;;;;;29.25;14.60;;;7.30;99.90;;;;;;6177033;23;20025;-34
2023/12/19 01:33:09;;;;;;;31.30;15.88;;;7.30;99.90;;;;;;6180154;23;20484;-35
2023/12/19 01:35:35;;;;;;;30.40;17.23;;;7.20;99.90;;;;;;6176179;23;20025;-35
2023/12/19 01:38:01;;;;;;;31.45;17.08;;;7.20;99.90;;;;;;6180572;23;20017;-35
2023/12/19 01:40:31;;;;;;;31.90;16.58;;;7.20;99.90;;;;;;6174979;23;20047;-35
2023/12/19 01:42:58;;;;;;;28.00;14.77;;;7.20;99.90;;;;;;6175429;23;20479;-34
2023/12/19 01:45:26;;;;;;;30.92;16.48;;;7.20;99.90;;;;;;6177376;23;20029;-34
2023/12/19 01:47:52;;;;;;;27.10;14.27;;;7.20;99.90;;;;;;6176404;23;20096;-34
2023/12/19 01:50:18;;;;;;;26.38;14.13;;;7.20;99.90;;;;;;6179270;23;20020;-35
2023/12/19 01:52:50;;;;;;;23.30;11.05;;;7.20;99.90;;;;;;6177804;23;20041;-34
2023/12/19 01:55:17;;;;;;;28.80;15.82;;;7.20;99.90;;;;;;6176349;23;20402;-34
2023/12/19 01:57:44;;;;;;;24.48;13.98;;;7.20;99.90;;;;;;6173031;23;20029;-36
2023/12/19 02:00:14;;;;;;;23.83;12.88;;;7.20;99.90;;;;;;6177269;23;20350;-35
2023/12/19 02:02:40;;;;;;;24.15;14.45;;;7.20;99.90;;;;;;6177100;23;20095;-34
2023/12/19 02:05:07;;;;;;;25.50;13.73;;;7.20;99.90;;;;;;6177270;23;20412;-34
2023/12/19 02:07:33;;;;;;;31.10;15.00;;;7.20;99.90;;;;;;6177956;23;20029;-34
2023/12/19 02:10:00;;;;;;;26.65;13.65;;;7.20;99.90;;;;;;6175574;23;20082;-34
2023/12/19 02:12:26;;;;;;;24.48;14.30;;;7.20;99.90;;;;;;6173219;23;20121;-34
2023/12/19 02:14:53;;;;;;;27.70;15.40;;;7.20;99.90;;;;;;6171485;23;20471;-35
2023/12/19 02:17:21;;;;;;;26.60;13.98;;;7.20;99.90;;;;;;6174552;23;20461;-35
2023/12/19 02:19:48;;;;;;;27.40;13.43;;;7.20;99.90;;;;;;6172139;23;20017;-35
2023/12/19 02:22:14;;;;;;;31.00;15.65;;;7.20;99.90;;;;;;6173935;23;20025;-37
2023/12/19 02:24:41;;;;;;;26.52;12.98;;;7.20;99.90;;;;;;6150757;23;20092;-35
2023/12/19 02:27:08;;;;;;;26.30;15.38;;;7.10;99.90;;;;;;6152520;23;20024;-35
2023/12/19 02:29:34;;;;;;;23.50;12.38;;;7.20;99.90;;;;;;6174818;23;20017;-35
2023/12/19 02:32:00;;;;;;;25.80;13.85;;;7.20;99.90;;;;;;6176835;23;20461;-35
2023/12/19 02:34:26;;;;;;;23.50;13.48;;;7.20;99.90;;;;;;6149112;23;20108;-35
2023/12/19 02:36:52;;;;;;;26.15;13.77;;;7.20;99.90;;;;;;6150918;23;20051;-35
2023/12/19 02:39:18;;;;;;;25.30;15.55;;;7.10;99.90;;;;;;6175481;23;20461;-35
2023/12/19 02:41:44;;;;;;;29.13;16.20;;;7.20;99.90;;;;;;6173973;23;20033;-34
2023/12/19 02:44:10;;;;;;;27.52;15.20;;;7.20;99.90;;;;;;6178387;23;20029;-35
2023/12/19 02:46:36;;;;;;;29.60;15.05;;;7.20;99.90;;;;;;6174821;23;20495;-35
2023/12/19 02:49:03;;;;;;;29.40;15.00;;;7.20;99.90;;;;;;6179718;23;20584;-35
2023/12/19 02:51:30;;;;;;;27.90;15.50;;;7.20;99.90;;;;;;6171717;23;20025;-34
2023/12/19 02:53:57;;;;;;;27.00;14.65;;;7.20;99.90;;;;;;6174262;23;20351;-34
2023/12/19 02:56:23;;;;;;;21.05;11.68;;;7.20;99.90;;;;;;6174060;23;20031;-34
2023/12/19 02:58:48;;;;;;;26.58;13.68;;;7.20;99.90;;;;;;6173501;23;20035;-35
2023/12/19 03:01:14;;;;;;;20.65;11.25;;;7.20;99.90;;;;;;6171338;23;20025;-35
2023/12/19 03:03:41;;;;;;;22.38;11.82;;;7.20;99.90;;;;;;6178246;23;20092;-34
2023/12/19 03:06:07;;;;;;;25.35;13.85;;;7.20;99.90;;;;;;6153114;23;20021;-35
2023/12/19 03:08:35;;;;;;;23.42;11.05;;;7.20;99.90;;;;;;6178580;23;20369;-36
2023/12/19 03:11:00;;;;;;;24.27;14.30;;;7.20;99.90;;;;;;6178893;23;20021;-35
2023/12/19 03:13:26;;;;;;;28.15;15.43;;;7.20;99.90;;;;;;6179798;23;20071;-35
2023/12/19 03:15:52;;;;;;;26.25;14.35;;;7.20;99.90;;;;;;6176441;23;20029;-35
2023/12/19 03:18:23;;;;;;;27.67;15.82;;;7.20;99.90;;;;;;6178462;23;20028;-35
2023/12/19 03:20:49;;;;;;;25.37;14.97;;;7.20;99.90;;;;;;6178087;23;20156;-35
2023/12/19 03:23:15;;;;;;;25.42;14.55;;;7.20;99.90;;;;;;6178929;23;20345;-34
2023/12/19 03:25:41;;;;;;;29.55;15.35;;;7.20;99.90;;;;;;6177814;23;20109;-36
2023/12/19 03:28:07;;;;;;;27.42;14.60;;;7.20;99.90;;;;;;6174831;23;20338;-34
2023/12/19 03:30:32;;;;;;;28.55;15.27;;;7.20;99.90;;;;;;6144273;23;20456;-34
2023/12/19 03:32:58;;;;;;;27.13;15.00;;;7.20;99.90;;;;;;6177661;23;20064;-35
2023/12/19 03:35:24;;;;;;;29.73;15.68;;;7.20;99.90;;;;;;6178478;23;20037;-35
2023/12/19 03:37:50;;;;;;;27.63;14.60;;;7.20;99.90;;;;;;6179743;23;20013;-34
2023/12/19 03:40:16;;;;;;;26.13;14.10;;;7.20;99.90;;;;;;6180320;23;20009;-34
2023/12/19 03:42:42;;;;;;;25.20;13.40;;;7.20;99.90;;;;;;6179219;23;20032;-34
2023/12/19 03:45:08;;;;;;;25.55;14.05;;;7.20;99.90;;;;;;6179163;23;20021;-34
2023/12/19 03:47:34;;;;;;;24.23;14.48;;;7.20;99.90;;;;;;6172210;23;20028;-35
2023/12/19 03:50:00;;;;;;;23.27;12.98;;;7.20;99.90;;;;;;6179384;23;20028;-34
2023/12/19 03:52:26;;;;;;;22.48;10.77;;;7.20;99.90;;;;;;6174949;23;20824;-34
2023/12/19 03:54:52;;;;;;;28.42;14.88;;;7.30;99.90;;;;;;6178133;23;20027;-34
2023/12/19 03:57:18;;;;;;;28.33;14.70;;;7.30;99.90;;;;;;6175398;23;20021;-34
2023/12/19 03:59:44;;;;;;;27.08;14.50;;;7.30;99.90;;;;;;6176539;23;20017;-34
2023/12/19 04:02:10;;;;;;;30.63;15.23;;;7.30;99.90;;;;;;6150800;23;20105;-34
2023/12/19 04:04:36;;;;;;;32.88;17.98;;;7.30;99.90;;;;;;6177687;23;20070;-35
2023/12/19 04:07:01;;;;;;;31.98;17.05;;;7.30;99.90;;;;;;6179860;23;20029;-34
2023/12/19 04:09:27;;;;;;;30.02;15.73;;;7.30;99.90;;;;;;6171471;23;20091;-34
2023/12/19 04:11:53;;;;;;;22.88;12.27;;;7.30;99.90;;;;;;6172391;23;20024;-34
2023/12/19 04:14:19;;;;;;;29.05;15.32;;;7.30;99.90;;;;;;6174143;23;20503;-34
2023/12/19 04:16:45;;;;;;;28.98;15.15;;;7.30;99.90;;;;;;6178152;23;20017;-34
2023/12/19 04:19:11;;;;;;;29.77;15.07;;;7.30;99.90;;;;;;6176593;23;20079;-34
2023/12/19 04:21:37;;;;;;;37.15;18.15;;;7.30;99.90;;;;;;6176716;23;20025;-34
2023/12/19 04:24:05;;;;;;;31.55;16.85;;;7.30;99.90;;;;;;6176705;23;20079;-34
2023/12/19 04:26:31;;;;;;;35.03;17.73;;;7.30;99.90;;;;;;6176059;23;20113;-35
2023/12/19 04:28:56;;;;;;;32.70;16.98;;;7.30;99.90;;;;;;6173569;23;20048;-35
2023/12/19 04:31:22;;;;;;;35.58;17.48;;;7.30;99.90;;;;;;6177971;23;20021;-35
2023/12/19 04:33:47;;;;;;;32.33;18.15;;;7.30;99.90;;;;;;6174666;23;20036;-35
2023/12/19 04:36:13;;;;;;;30.92;16.67;;;7.30;99.90;;;;;;6177202;23;20021;-34
2023/12/19 04:38:39;;;;;;;33.22;17.70;;;7.30;99.90;;;;;;6176604;23;20017;-36
2023/12/19 04:41:05;;;;;;;33.20;16.27;;;7.30;99.90;;;;;;6177849;23;20021;-36
2023/12/19 04:43:31;;;;;;;31.20;16.35;;;7.30;99.90;;;;;;6178087;23;20021;-34
2023/12/19 04:45:57;;;;;;;33.65;16.55;;;7.30;99.90;;;;;;6176128;23;20104;-35
2023/12/19 04:48:23;;;;;;;28.90;15.35;;;7.40;99.90;;;;;;6178362;23;20028;-35
2023/12/19 04:50:49;;;;;;;30.60;16.05;;;7.40;99.90;;;;;;6176824;23;20017;-35
2023/12/19 04:53:16;;;;;;;29.85;14.30;;;7.30;99.90;;;;;;6178352;23;20086;-35
2023/12/19 04:55:41;;;;;;;31.25;15.73;;;7.40;99.90;;;;;;6175063;23;20094;-35
2023/12/19 04:58:07;;;;;;;20.15;11.77;;;7.40;99.90;;;;;;6177460;23;20475;-35
2023/12/19 05:00:33;;;;;;;28.52;14.70;;;7.40;99.90;;;;;;6180473;23;20095;-35
2023/12/19 05:02:59;;;;;;;27.65;14.18;;;7.40;99.90;;;;;;6179343;23;20036;-35
2023/12/19 05:05:24;;;;;;;20.90;11.60;;;7.40;99.90;;;;;;6179507;23;20388;-34
2023/12/19 05:07:50;;;;;;;22.80;13.15;;;7.40;99.90;;;;;;6179109;23;20344;-36
2023/12/19 05:10:15;;;;;;;21.02;11.73;;;7.40;99.90;;;;;;6180828;23;20352;-35
2023/12/19 05:12:41;;;;;;;23.40;12.65;;;7.40;99.90;;;;;;6179149;23;20348;-35
2023/12/19 05:15:07;;;;;;;23.05;12.15;;;7.40;99.90;;;;;;6179448;23;20068;-35
2023/12/19 05:17:33;;;;;;;21.98;11.65;;;7.40;99.90;;;;;;6180693;23;20092;-36
2023/12/19 05:20:01;;;;;;;21.63;11.95;;;7.40;99.90;;;;;;6179091;23;20045;-35
2023/12/19 05:22:28;;;;;;;21.88;11.02;;;7.40;99.90;;;;;;6154470;23;20108;-36
2023/12/19 05:24:54;;;;;;;21.00;11.15;;;7.40;99.90;;;;;;6168326;23;20035;-35
2023/12/19 05:27:19;;;;;;;18.42;10.15;;;7.40;99.90;;;;;;6174000;23;20349;-36
2023/12/19 05:29:45;;;;;;;19.45;10.73;;;7.40;99.90;;;;;;6177890;23;20025;-35
2023/12/19 05:32:11;;;;;;;15.57;8.18;;;7.40;99.90;;;;;;6178896;23;20020;-36
2023/12/19 05:34:36;;;;;;;17.25;9.52;;;7.40;99.90;;;;;;6179097;23;20041;-36
2023/12/19 05:37:03;;;;;;;19.05;10.02;;;7.40;99.90;;;;;;6178975;23;20032;-35
2023/12/19 05:39:30;;;;;;;18.33;10.18;;;7.40;99.90;;;;;;6180943;23;20028;-36
2023/12/19 05:41:57;;;;;;;16.00;8.90;;;7.40;99.90;;;;;;6179138;23;20024;-35
2023/12/19 05:44:23;;;;;;;15.80;8.63;;;7.40;99.90;;;;;;6180501;23;20025;-36
2023/12/19 05:46:49;;;;;;;15.70;8.98;;;7.40;99.90;;;;;;6179469;23;20338;-35
2023/12/19 05:49:15;;;;;;;14.65;8.50;;;7.50;99.90;;;;;;6178844;23;20021;-35
2023/12/19 05:51:41;;;;;;;15.38;8.05;;;7.40;99.90;;;;;;6177864;23;20020;-35
2023/12/19 05:54:07;;;;;;;16.90;8.63;;;7.40;99.90;;;;;;6178929;23;20029;-35
2023/12/19 05:56:33;;;;;;;13.95;7.85;;;7.40;99.90;;;;;;6179959;23;20020;-35
2023/12/19 05:58:59;;;;;;;10.43;6.00;;;7.40;99.90;;;;;;6179180;23;20104;-36
2023/12/19 06:01:25;;;;;;;14.00;7.85;;;7.40;99.90;;;;;;6178428;23;20071;-35
2023/12/19 06:03:51;;;;;;;14.70;8.00;;;7.50;99.90;;;;;;6179204;23;20024;-35
2023/12/19 06:06:17;;;;;;;13.75;8.68;;;7.40;99.90;;;;;;6178353;23;20516;-35
2023/12/19 06:08:43;;;;;;;13.88;7.63;;;7.40;99.90;;;;;;6179516;23;20017;-35
2023/12/19 06:11:12;;;;;;;14.25;8.18;;;7.40;99.90;;;;;;6177569;23;20025;-35
2023/12/19 06:13:38;;;;;;;15.50;8.23;;;7.50;99.90;;;;;;6178642;23;20315;-35
2023/12/19 06:16:07;;;;;;;16.48;8.68;;;7.50;99.90;;;;;;6178640;23;20353;-36
2023/12/19 06:18:33;;;;;;;15.75;9.00;;;7.50;99.90;;;;;;6179573;23;20029;-35
2023/12/19 06:21:01;;;;;;;15.93;8.65;;;7.50;99.90;;;;;;6179554;23;20025;-36
2023/12/19 06:23:27;;;;;;;12.23;6.65;;;7.50;99.90;;;;;;6180151;23;20522;-35
2023/12/19 06:25:54;;;;;;;12.45;6.95;;;7.50;99.90;;;;;;6180339;23;20017;-35
2023/12/19 06:28:20;;;;;;;11.75;7.22;;;7.50;99.90;;;;;;6179209;23;20548;-34
2023/12/19 06:30:45;;;;;;;13.68;7.75;;;7.50;99.90;;;;;;6178979;23;20013;-34
2023/12/19 06:33:11;;;;;;;13.05;6.95;;;7.50;99.90;;;;;;6177255;23;20021;-35
2023/12/19 06:35:42;;;;;;;12.52;7.00;;;7.60;99.90;;;;;;6177188;23;20041;-35
2023/12/19 06:38:08;;;;;;;14.55;8.25;;;7.60;99.90;;;;;;6152071;23;20460;-35
2023/12/19 06:40:35;;;;;;;11.77;7.18;;;7.60;99.90;;;;;;6178590;23;20020;-34
2023/12/19 06:43:03;;;;;;;12.35;7.35;;;7.60;99.90;;;;;;6152092;23;20361;-35
2023/12/19 06:45:29;;;;;;;12.85;7.05;;;7.60;99.90;;;;;;6180456;23;20021;-34
2023/12/19 06:47:54;;;;;;;12.82;7.47;;;7.60;99.90;;;;;;6178142;23;20100;-34
2023/12/19 06:50:20;;;;;;;10.57;6.18;;;7.60;99.90;;;;;;6179703;23;20068;-34
2023/12/19 06:52:46;;;;;;;13.18;7.38;;;7.60;99.90;;;;;;6179804;23;20353;-34
2023/12/19 06:55:12;;;;;;;11.60;6.80;;;7.60;99.90;;;;;;6176832;23;20024;-34
2023/12/19 06:57:38;;;;;;;12.23;7.20;;;7.60;99.90;;;;;;6180004;23;20052;-34
2023/12/19 07:00:06;;;;;;;12.15;7.13;;;7.70;99.90;;;;;;6177767;23;20017;-34
2023/12/19 07:02:32;;;;;;;12.27;7.18;;;7.70;99.90;;;;;;6177339;23;20025;-34
2023/12/19 07:04:58;;;;;;;15.00;8.43;;;7.70;99.90;;;;;;6177719;23;20357;-34
2023/12/19 07:07:24;;;;;;;12.00;7.53;;;7.70;99.90;;;;;;6178147;23;20043;-34
2023/12/19 07:09:50;;;;;;;13.55;7.75;;;7.70;99.90;;;;;;6179777;23;20108;-34
2023/12/19 07:12:15;;;;;;;13.45;7.70;;;7.70;99.90;;;;;;6178483;23;20530;-34
2023/12/19 07:14:41;;;;;;;15.18;8.73;;;7.80;99.90;;;;;;6179430;23;20095;-34
2023/12/19 07:17:07;;;;;;;13.90;8.15;;;7.80;99.90;;;;;;6179394;23;20075;-35
2023/12/19 07:19:33;;;;;;;13.38;7.82;;;7.80;99.90;;;;;;6178273;23;20074;-35
2023/12/19 07:22:00;;;;;;;14.90;8.35;;;7.80;99.90;;;;;;6176047;23;20029;-35
2023/12/19 07:24:25;;;;;;;11.88;6.45;;;7.80;99.90;;;;;;6178160;23;20021;-35
2023/12/19 07:26:52;;;;;;;13.70;7.28;;;7.80;99.90;;;;;;6177226;23;20025;-35
2023/12/19 07:29:19;;;;;;;12.88;7.68;;;7.90;99.90;;;;;;6178041;23;20483;-34
2023/12/19 07:31:44;;;;;;;14.43;8.30;;;7.80;99.90;;;;;;6178986;23;20013;-34
2023/12/19 07:34:10;;;;;;;14.63;8.77;;;7.90;99.90;;;;;;6177622;23;20043;-34
2023/12/19 07:36:36;;;;;;;15.90;9.40;;;7.90;99.90;;;;;;6180108;23;20021;-34
2023/12/19 07:39:03;;;;;;;18.45;10.05;;;7.90;99.90;;;;;;6179085;23;20457;-35
2023/12/19 07:41:31;;;;;;;15.68;9.13;;;7.90;99.90;;;;;;6179451;23;20032;-34
2023/12/19 07:43:57;;;;;;;16.33;9.45;;;7.90;99.90;;;;;;6179562;23;20156;-34
2023/12/19 07:46:23;;;;;;;16.40;9.27;;;7.90;99.90;;;;;;6180343;23;20024;-34
2023/12/19 07:48:49;;;;;;;19.52;10.15;;;7.90;99.90;;;;;;6178961;23;20040;-34
2023/12/19 07:51:16;;;;;;;16.13;8.85;;;7.90;99.90;;;;;;6148615;23;20029;-34
2023/12/19 07:53:42;;;;;;;18.55;10.32;;;8.00;99.90;;;;;;6175937;23;20016;-34
2023/12/19 07:56:08;;;;;;;20.80;11.27;;;8.00;99.90;;;;;;6177141;23;20023;-34
2023/12/19 07:58:33;;;;;;;19.45;10.95;;;8.00;99.90;;;;;;6126681;23;20405;-36
2023/12/19 08:00:59;;;;;;;18.58;10.60;;;8.00;99.90;;;;;;6177875;23;20029;-33
2023/12/19 08:03:29;;;;;;;16.50;9.32;;;8.00;99.90;;;;;;6152058;23;20361;-34
2023/12/19 08:05:56;;;;;;;18.35;9.98;;;8.00;99.90;;;;;;6153015;23;20095;-34
2023/12/19 08:08:25;;;;;;;18.65;10.73;;;8.10;99.90;;;;;;6177663;23;20459;-34
2023/12/19 08:10:52;;;;;;;21.58;11.40;;;8.10;99.90;;;;;;6179181;23;20070;-34
2023/12/19 08:13:20;;;;;;;17.27;8.77;;;8.10;99.90;;;;;;6178793;23;20088;-35
2023/12/19 08:15:49;;;;;;;21.20;11.52;;;8.20;99.90;;;;;;6178945;23;20019;-34
2023/12/19 08:18:15;;;;;;;19.70;11.32;;;8.20;99.90;;;;;;6176686;23;20021;-34
2023/12/19 08:20:42;;;;;;;22.52;10.90;;;8.20;99.90;;;;;;6179282;23;20305;-34
2023/12/19 08:23:08;;;;;;;22.35;11.70;;;8.20;99.90;;;;;;6177158;23;20017;-35
2023/12/19 08:25:34;;;;;;;21.52;11.23;;;8.20;99.90;;;;;;6177118;23;20020;-36
2023/12/19 08:28:01;;;;;;;21.58;11.48;;;8.30;99.90;;;;;;6177912;23;20424;-35
2023/12/19 08:30:27;;;;;;;20.45;11.50;;;8.20;99.90;;;;;;6178652;23;20020;-35
2023/12/19 08:32:56;;;;;;;20.75;11.77;;;8.30;99.90;;;;;;6176484;23;20017;-35
2023/12/19 08:35:22;;;;;;;18.88;9.80;;;8.30;99.90;;;;;;6151511;23;20025;-34
2023/12/19 08:37:49;;;;;;;20.40;11.45;;;8.30;99.90;;;;;;6179116;23;20111;-34
2023/12/19 08:40:14;;;;;;;21.33;12.50;;;8.30;99.90;;;;;;6175104;23;20017;-35
2023/12/19 08:42:41;;;;;;;22.75;11.38;;;8.30;99.90;;;;;;6179156;23;20100;-35
2023/12/19 08:45:14;;;;;;;18.50;10.63;;;8.30;99.90;;;;;;6177203;23;20032;-35
2023/12/19 08:47:39;;;;;;;16.80;10.05;;;8.30;99.90;;;;;;6150967;23;20029;-35
2023/12/19 08:50:08;;;;;;;18.15;10.90;;;8.40;99.90;;;;;;6178723;23;20109;-35
2023/12/19 08:52:34;;;;;;;20.92;11.32;;;8.30;99.90;;;;;;6176637;23;20515;-34
2023/12/19 08:55:00;;;;;;;20.08;10.30;;;8.30;99.90;;;;;;6178612;23;20035;-35
2023/12/19 08:57:26;;;;;;;19.88;10.63;;;8.40;99.90;;;;;;6166014;23;20072;-36
2023/12/19 08:59:51;;;;;;;19.33;10.73;;;8.40;99.90;;;;;;6178866;23;20033;-36
2023/12/19 09:02:17;;;;;;;17.80;10.23;;;8.40;99.90;;;;;;6177153;23;20032;-35
2023/12/19 09:04:43;;;;;;;19.25;10.90;;;8.40;99.90;;;;;;6178177;23;20456;-35
2023/12/19 09:07:08;;;;;;;19.08;9.93;;;8.40;99.90;;;;;;6178872;23;20025;-35
2023/12/19 09:09:34;;;;;;;22.73;11.70;;;8.40;99.90;;;;;;6178033;23;20350;-35
2023/12/19 09:12:00;;;;;;;17.73;10.65;;;8.40;99.90;;;;;;6178846;23;20021;-35
2023/12/19 09:14:25;;;;;;;20.70;10.60;;;8.40;99.90;;;;;;6177369;23;20017;-35
2023/12/19 09:16:51;;;;;;;18.15;11.52;;;8.40;99.90;;;;;;6179834;23;20032;-35
2023/12/19 09:19:17;;;;;;;18.42;11.68;;;8.40;99.90;;;;;;6177985;23;20059;-35
2023/12/19 09:21:43;;;;;;;18.45;10.32;;;8.40;99.90;;;;;;6178380;23;20052;-35
2023/12/19 09:24:09;;;;;;;18.80;10.95;;;8.40;99.90;;;;;;6151468;23;20029;-35
2023/12/19 09:26:38;;;;;;;18.20;10.23;;;8.40;99.90;;;;;;6179366;23;20093;-35
2023/12/19 09:29:06;;;;;;;22.80;12.93;;;8.40;99.90;;;;;;6177048;23;20334;-35
2023/12/19 09:31:32;;;;;;;19.90;11.55;;;8.40;99.90;;;;;;6159813;23;20449;-36
2023/12/19 09:33:58;;;;;;;20.10;10.85;;;8.40;99.90;;;;;;6170602;23;20024;-35
2023/12/19 09:36:27;;;;;;;19.88;11.73;;;8.40;99.90;;;;;;6177074;23;20017;-35
2023/12/19 09:38:52;;;;;;;19.95;11.35;;;8.40;99.90;;;;;;6177497;23;20108;-35
2023/12/19 09:41:18;;;;;;;20.70;11.85;;;8.40;99.90;;;;;;6177075;23;20127;-35
2023/12/19 09:43:44;;;;;;;19.58;12.02;;;8.40;99.90;;;;;;6151686;23;20397;-36
2023/12/19 09:46:10;;;;;;;19.63;11.73;;;8.40;99.90;;;;;;6179646;23;20021;-35
2023/12/19 09:48:36;;;;;;;21.08;12.32;;;8.40;99.90;;;;;;6179127;23;20020;-35
2023/12/19 09:51:11;;;;;;;18.65;11.70;;;8.40;99.90;;;;;;6178967;23;20144;-35
2023/12/19 09:53:37;;;;;;;20.85;11.93;;;8.40;99.90;;;;;;6149621;23;20021;-35
2023/12/19 09:56:03;;;;;;;19.15;11.88;;;8.40;99.90;;;;;;6150214;23;20036;-34
2023/12/19 09:58:28;;;;;;;18.63;11.13;;;8.40;99.90;;;;;;6148213;23;20491;-34
2023/12/19 10:00:58;;;;;;;15.98;9.75;;;8.40;99.90;;;;;;6149508;23;20018;-34
2023/12/19 10:03:27;;;;;;;17.05;9.57;;;8.40;99.90;;;;;;6148479;23;20508;-34
2023/12/19 10:05:56;;;;;;;18.33;10.63;;;8.40;99.90;;;;;;6149127;23;20021;-35
2023/12/19 10:08:22;;;;;;;15.82;9.73;;;8.40;99.90;;;;;;6149544;23;20027;-34
2023/12/19 10:10:54;;;;;;;18.15;10.68;;;8.40;99.90;;;;;;6124332;23;20013;-34
2023/12/19 10:13:31;;;;;;;15.70;9.95;;;8.40;99.90;;;;;;6148804;23;20013;-34
2023/12/19 10:16:13;;;;;;;13.65;8.63;;;8.40;99.90;;;;;;6150673;23;20021;-35
2023/12/19 10:18:39;;;;;;;15.13;8.95;;;8.40;99.90;;;;;;6148816;23;20405;-35
2023/12/19 10:21:13;;;;;;;18.00;9.70;;;8.40;99.90;;;;;;6151270;23;20017;-35
2023/12/19 10:23:43;;;;;;;14.45;9.32;;;8.40;99.90;;;;;;6148573;23;20048;-35
2023/12/19 10:26:09;;;;;;;15.38;9.38;;;8.40;99.90;;;;;;6150637;23;20472;-35
2023/12/19 10:28:37;;;;;;;13.82;8.80;;;8.40;99.90;;;;;;6149314;23;20505;-35
2023/12/19 10:31:12;;;;;;;15.82;9.75;;;8.50;99.90;;;;;;6149787;23;20025;-35
2023/12/19 10:33:43;;;;;;;14.85;9.23;;;8.40;99.90;;;;;;6148458;23;20045;-35
2023/12/19 10:36:21;;;;;;;15.45;8.88;;;8.50;99.90;;;;;;6149206;23;20041;-35
2023/12/19 10:38:48;;;;;;;13.25;8.25;;;8.50;99.90;;;;;;6121243;23;20021;-35
2023/12/19 10:41:22;;;;;;;13.90;8.57;;;8.50;99.90;;;;;;6149298;23;20026;-35
2023/12/19 10:43:52;;;;;;;13.32;8.05;;;8.50;99.90;;;;;;6136453;23;20018;-35
2023/12/19 10:46:21;;;;;;;14.25;8.80;;;8.50;99.90;;;;;;6150122;23;20353;-35
2023/12/19 10:48:47;;;;;;;13.55;8.43;;;8.50;99.90;;;;;;6148901;23;20457;-40
2023/12/19 10:51:18;;;;;;;12.32;8.40;;;8.50;99.90;;;;;;6150106;23;20028;-34
2023/12/19 10:53:58;;;;;;;12.50;8.27;;;8.50;99.90;;;;;;6121681;23;20494;-35
2023/12/19 10:56:25;;;;;;;14.95;9.15;;;8.50;99.90;;;;;;6148187;23;20021;-35
2023/12/19 10:59:00;;;;;;;14.05;8.40;;;8.50;99.90;;;;;;6148887;23;20025;-35
2023/12/19 11:01:32;;;;;;;14.05;8.55;;;8.50;99.90;;;;;;6147981;23;20357;-35
2023/12/19 11:04:01;;;;;;;12.63;8.07;;;8.50;99.90;;;;;;6149212;23;20014;-35
2023/12/19 11:06:32;;;;;;;13.30;8.73;;;8.50;99.90;;;;;;6150557;23;20791;-35
2023/12/19 11:09:05;;;;;;;13.88;8.02;;;8.50;99.90;;;;;;6149916;23;20112;-35
2023/12/19 11:11:35;;;;;;;;;;;8.50;99.90;;;;;;6149466;23;20458;-35
2023/12/19 11:14:02;;;;;;;15.73;9.20;;;8.50;99.90;;;;;;6148354;23;20228;-34
2023/12/19 11:16:51;;;;;;;12.20;7.85;;;8.50;99.90;;;;;;6148083;23;20017;-34
2023/12/19 11:19:24;;;;;;;14.80;8.43;;;8.50;99.90;;;;;;6149905;23;20021;-34
2023/12/19 11:22:08;;;;;;;12.20;7.63;;;8.50;99.90;;;;;;6146850;23;20045;-34
2023/12/19 11:25:01;;;;;;;12.95;7.78;;;8.50;99.90;;;;;;6136059;23;20021;-34
2023/12/19 11:27:39;;;;;;;12.95;8.48;;;8.50;99.90;;;;;;6147997;23;20100;-34
2023/12/19 11:30:05;;;;;;;14.07;8.30;;;8.50;99.90;;;;;;6147619;23;20335;-34
2023/12/19 11:32:31;;;;;;;10.40;6.90;;;8.60;99.90;;;;;;6149682;23;20409;-34
2023/12/19 11:35:09;;;;;;;13.45;7.07;;;8.60;99.90;;;;;;6148126;23;20029;-34
2023/12/19 11:37:45;;;;;;;12.05;7.78;;;8.60;99.90;;;;;;6148557;23;20096;-34
2023/12/19 11:40:46;;;;;;;10.55;6.72;;;8.60;99.90;;;;;;6149209;23;20024;-34
2023/12/19 11:43:27;;;;;;;11.57;7.35;;;8.60;99.90;;;;;;6130501;23;20560;-34
2023/12/19 11:45:58;;;;;;;10.77;7.38;;;8.60;99.90;;;;;;6122071;23;20022;-34
2023/12/19 11:48:36;;;;;;;11.45;7.53;;;8.60;99.90;;;;;;6149089;23;20449;-34
2023/12/19 11:51:09;;;;;;;11.52;7.35;;;8.60;99.90;;;;;;6147991;23;20449;-34
2023/12/19 11:53:39;;;;;;;12.32;6.82;;;8.60;99.90;;;;;;6148526;23;20353;-34
2023/12/19 11:56:10;;;;;;;10.65;6.75;;;8.60;99.90;;;;;;6147934;23;20024;-34
2023/12/19 11:58:51;;;;;;;10.35;7.10;;;8.60;99.90;;;;;;6148861;23;20101;-34
2023/12/19 12:01:20;;;;;;;10.40;7.40;;;8.60;99.90;;;;;;6146386;23;20141;-35
2023/12/19 12:03:47;;;;;;;11.05;6.88;;;8.60;99.90;;;;;;6123925;23;20025;-36
2023/12/19 12:06:13;;;;;;;11.38;6.72;;;8.60;99.90;;;;;;6149390;23;20029;-35
2023/12/19 12:08:39;;;;;;;11.70;7.22;;;8.60;99.90;;;;;;6148813;23;20028;-35
2023/12/19 12:11:10;;;;;;;10.50;7.25;;;8.70;99.90;;;;;;6147949;23;20053;-35
2023/12/19 12:13:36;;;;;;;12.48;7.85;;;8.70;99.90;;;;;;6147667;23;20013;-35
2023/12/19 12:16:05;;;;;;;10.40;6.80;;;8.70;99.90;;;;;;6148560;23;20072;-35
2023/12/19 12:18:31;;;;;;;11.32;7.50;;;8.70;99.90;;;;;;6149537;23;20017;-36
2023/12/19 12:21:07;;;;;;;10.50;7.18;;;8.70;99.90;;;;;;6122252;23;20153;-36
2023/12/19 12:23:33;;;;;;;12.60;7.43;;;8.70;99.90;;;;;;6123728;23;20040;-35
2023/12/19 12:25:59;;;;;;;10.70;6.63;;;8.70;99.90;;;;;;6147154;23;20021;-36
2023/12/19 12:28:26;;;;;;;10.57;6.78;;;8.70;99.90;;;;;;6135446;23;20068;-35
2023/12/19 12:30:56;;;;;;;12.65;7.05;;;8.70;99.90;;;;;;6143839;23;20093;-35
2023/12/19 12:33:27;;;;;;;13.10;7.97;;;8.70;99.90;;;;;;6116103;23;20611;-36
2023/12/19 12:35:53;;;;;;;10.70;7.40;;;8.70;99.90;;;;;;6115476;23;20394;-36
2023/12/19 12:38:20;;;;;;;11.35;6.93;;;8.70;99.90;;;;;;6114723;23;20019;-35
2023/12/19 12:41:00;;;;;;;11.00;6.78;;;8.70;99.90;;;;;;6115490;23;20125;-36